createdAt,value
2019-02-28T00:01:52.757Z,20.95
2019-02-28T00:04:21.003Z,25.92
2019-02-28T00:06:49.424Z,27.22
2019-02-28T00:09:17.668Z,27.45
2019-02-28T00:11:44.607Z,24.27
2019-02-28T00:14:12.815Z,29.50
2019-02-28T00:16:41.310Z,30.80
2019-02-28T00:19:12.251Z,25.97
2019-02-28T00:21:40.567Z,31.70
2019-02-28T00:24:09.636Z,28.73
2019-02-28T00:26:37.791Z,23.70
2019-02-28T00:29:06.012Z,28.45
2019-02-28T00:31:34.619Z,26.45
2019-02-28T00:34:05.476Z,30.05
2019-02-28T00:36:32.417Z,29.82
2019-02-28T00:39:03.924Z,29.23
2019-02-28T00:41:31.108Z,32.13
2019-02-28T00:43:58.327Z,25.50
2019-02-28T00:46:26.510Z,30.00
2019-02-28T00:48:54.833Z,25.23
2019-02-28T00:51:23.886Z,29.02
2019-02-28T00:53:52.083Z,28.87
2019-02-28T00:56:20.318Z,27.42
2019-02-28T00:58:48.581Z,27.00
2019-02-28T01:01:16.882Z,26.87
2019-02-28T01:03:44.554Z,31.30
2019-02-28T01:06:13.166Z,31.12
2019-02-28T01:08:41.438Z,29.35
2019-02-28T01:11:10.378Z,26.60
2019-02-28T01:13:38.640Z,30.43
2019-02-28T01:16:07.206Z,27.15
2019-02-28T01:18:36.174Z,32.50
2019-02-28T01:21:04.487Z,34.33
2019-02-28T01:23:33.062Z,29.57
2019-02-28T01:26:01.649Z,31.05
2019-02-28T01:28:30.429Z,33.55
2019-02-28T01:30:57.599Z,35.70
2019-02-28T01:33:30.625Z,35.73
2019-02-28T01:35:58.222Z,39.23
2019-02-28T01:38:27.208Z,38.55
2019-02-28T01:40:55.454Z,41.37
2019-02-28T01:43:28.508Z,43.52
2019-02-28T01:45:54.678Z,43.28
2019-02-28T01:48:23.727Z,40.83
2019-02-28T01:53:42.423Z,43.68
2019-02-28T01:56:10.544Z,42.53
2019-02-28T01:58:38.083Z,41.65
2019-02-28T02:01:05.273Z,44.13
2019-02-28T02:03:32.831Z,43.60
2019-02-28T02:06:00.149Z,46.60
2019-02-28T02:08:27.609Z,43.65
2019-02-28T02:10:56.127Z,48.45
2019-02-28T02:13:23.663Z,48.75
2019-02-28T02:15:52.095Z,48.23
2019-02-28T02:18:19.898Z,51.35
2019-02-28T02:20:47.390Z,47.20
2019-02-28T02:23:17.834Z,49.63
2019-02-28T02:25:44.673Z,44.30
2019-02-28T02:28:12.838Z,45.00
2019-02-28T02:30:40.599Z,47.50
2019-02-28T02:33:13.621Z,44.15
2019-02-28T02:35:42.247Z,47.93
2019-02-28T02:38:06.587Z,39.83
2019-02-28T02:40:33.869Z,42.80
2019-02-28T02:43:01.420Z,49.95
2019-02-28T02:45:28.663Z,48.00
2019-02-28T02:47:56.037Z,40.30
2019-02-28T02:50:23.652Z,45.43
2019-02-28T02:52:51.999Z,46.95
2019-02-28T02:55:20.194Z,42.00
2019-02-28T02:57:51.674Z,46.02
2019-02-28T03:00:18.791Z,42.78
2019-02-28T03:02:47.008Z,44.88
2019-02-28T03:05:15.335Z,41.60
2019-02-28T03:07:43.637Z,48.90
2019-02-28T03:10:17.514Z,49.27
2019-02-28T03:12:42.922Z,44.33
2019-02-28T03:15:12.228Z,51.53
2019-02-28T03:17:46.540Z,49.30
2019-02-28T03:20:10.966Z,52.43
2019-02-28T03:22:39.173Z,50.43
2019-02-28T03:25:08.345Z,51.80
2019-02-28T03:27:36.783Z,47.53
2019-02-28T03:30:06.791Z,54.58
2019-02-28T03:32:41.850Z,49.85
2019-02-28T03:35:05.679Z,49.23
2019-02-28T03:37:34.614Z,47.58
2019-02-28T03:40:05.191Z,42.73
2019-02-28T03:42:34.047Z,44.77
2019-02-28T03:45:02.602Z,44.65
2019-02-28T03:47:30.824Z,47.53
2019-02-28T03:49:59.874Z,52.25
2019-02-28T03:52:28.962Z,47.35
2019-02-28T03:54:56.374Z,50.50
2019-02-28T03:57:29.438Z,47.75
2019-02-28T03:59:56.699Z,55.78
2019-02-28T04:02:25.766Z,48.05
2019-02-28T04:04:53.119Z,43.65
2019-02-28T04:07:21.338Z,51.73
2019-02-28T04:09:49.491Z,47.35
2019-02-28T04:12:17.785Z,50.43
2019-02-28T04:14:46.098Z,49.50
2019-02-28T04:17:13.301Z,47.95
2019-02-28T04:19:41.791Z,53.95
2019-02-28T04:22:10.183Z,51.48
2019-02-28T04:24:39.241Z,49.40
2019-02-28T04:27:08.307Z,45.65
2019-02-28T04:29:37.336Z,47.43
2019-02-28T04:32:05.691Z,48.55
2019-02-28T04:34:34.498Z,54.33
2019-02-28T04:37:01.507Z,48.75
2019-02-28T04:39:30.631Z,52.78
2019-02-28T04:41:59.467Z,48.95
2019-02-28T04:44:27.368Z,49.03
2019-02-28T04:46:55.884Z,47.80
2019-02-28T04:49:24.733Z,51.88
2019-02-28T04:51:51.954Z,50.63
2019-02-28T04:54:20.125Z,46.50
2019-02-28T04:56:48.430Z,52.35
2019-02-28T04:59:15.506Z,56.70
2019-02-28T05:01:45.239Z,52.65
2019-02-28T05:04:14.078Z,51.25
2019-02-28T05:06:42.260Z,50.30
2019-02-28T05:09:10.765Z,49.77
2019-02-28T05:11:40.590Z,51.45
2019-02-28T05:14:08.771Z,57.23
2019-02-28T05:16:36.978Z,56.95
2019-02-28T05:19:04.046Z,52.80
2019-02-28T05:21:32.270Z,59.00
2019-02-28T05:24:00.364Z,54.83
2019-02-28T05:26:28.838Z,60.15
2019-02-28T05:28:57.177Z,60.25
2019-02-28T05:31:27.099Z,56.65
2019-02-28T05:33:54.446Z,61.45
2019-02-28T05:36:22.610Z,59.08
2019-02-28T05:38:53.534Z,69.07
2019-02-28T05:41:20.259Z,64.85
2019-02-28T05:43:47.463Z,53.90
2019-02-28T05:46:15.931Z,61.08
2019-02-28T05:48:44.605Z,59.73
2019-02-28T05:51:12.875Z,58.33
2019-02-28T05:53:42.483Z,68.25
2019-02-28T05:56:11.024Z,67.22
2019-02-28T05:58:39.002Z,63.08
2019-02-28T06:01:08.759Z,63.13
2019-02-28T06:03:37.382Z,69.65
2019-02-28T06:06:08.107Z,61.58
2019-02-28T06:08:39.044Z,71.02
2019-02-28T06:11:06.598Z,70.55
2019-02-28T06:13:37.002Z,75.50
2019-02-28T06:16:04.503Z,74.32
2019-02-28T06:18:33.434Z,68.00
2019-02-28T06:21:01.793Z,70.47
2019-02-28T06:23:30.162Z,73.47
2019-02-28T06:25:59.259Z,76.33
2019-02-28T06:28:31.124Z,81.17
2019-02-28T06:31:00.147Z,72.82
2019-02-28T06:33:27.294Z,80.07
2019-02-28T06:35:54.977Z,76.50
2019-02-28T06:38:23.157Z,69.90
2019-02-28T06:40:56.110Z,80.53
2019-02-28T06:43:23.365Z,75.03
2019-02-28T06:45:51.993Z,93.15
2019-02-28T06:48:25.950Z,80.47
2019-02-28T06:50:51.063Z,68.55
2019-02-28T06:53:19.300Z,76.15
2019-02-28T06:55:48.158Z,78.42
2019-02-28T06:58:16.708Z,74.95
2019-02-28T07:00:47.396Z,78.95
2019-02-28T07:03:15.585Z,79.40
2019-02-28T07:05:44.207Z,81.00
2019-02-28T07:08:13.414Z,84.47
2019-02-28T07:10:41.565Z,85.77
2019-02-28T07:13:11.851Z,85.70
2019-02-28T07:15:40.595Z,76.75
2019-02-28T07:18:09.717Z,81.10
2019-02-28T07:20:37.270Z,83.37
2019-02-28T07:23:05.839Z,83.87
2019-02-28T07:25:34.840Z,81.32
2019-02-28T07:28:02.531Z,78.62
2019-02-28T07:30:31.106Z,76.80
2019-02-28T07:32:59.967Z,78.40
2019-02-28T07:35:32.685Z,82.50
2019-02-28T07:37:59.264Z,80.47
2019-02-28T07:40:27.826Z,90.60
2019-02-28T07:42:56.554Z,75.42
2019-02-28T07:45:25.543Z,73.02
2019-02-28T07:47:53.372Z,78.72
2019-02-28T07:50:21.810Z,80.45
2019-02-28T07:52:50.309Z,77.78
2019-02-28T07:55:18.759Z,79.25
2019-02-28T07:57:51.265Z,71.42
2019-02-28T08:00:18.570Z,70.87
2019-02-28T08:02:48.704Z,74.30
2019-02-28T08:05:17.707Z,74.55
2019-02-28T08:07:50.279Z,72.55
2019-02-28T08:10:17.937Z,76.02
2019-02-28T08:12:46.729Z,78.70
2019-02-28T08:15:22.293Z,80.10
2019-02-28T08:17:49.228Z,82.50
2019-02-28T08:20:19.758Z,78.02
2019-02-28T08:22:46.928Z,79.32
2019-02-28T08:25:15.626Z,68.20
2019-02-28T08:27:44.614Z,72.60
2019-02-28T08:30:16.258Z,70.42
2019-02-28T08:32:47.157Z,73.20
2019-02-28T08:35:15.863Z,75.47
2019-02-28T08:37:45.047Z,77.72
2019-02-28T08:40:15.633Z,67.03
2019-02-28T08:42:49.954Z,69.77
2019-02-28T08:45:18.590Z,77.12
2019-02-28T08:47:48.118Z,69.30
2019-02-28T08:50:20.661Z,65.35
2019-02-28T08:52:53.473Z,69.35
2019-02-28T08:55:28.394Z,82.30
2019-02-28T08:57:54.741Z,69.62
2019-02-28T09:00:22.835Z,72.85
2019-02-28T09:02:56.026Z,78.45
2019-02-28T09:05:26.352Z,75.05
2019-02-28T09:07:53.310Z,67.65
2019-02-28T09:10:21.803Z,69.20
2019-02-28T09:12:50.120Z,71.02
2019-02-28T09:15:19.949Z,64.32
2019-02-28T09:17:48.287Z,76.25
2019-02-28T09:20:16.879Z,67.35
2019-02-28T09:22:45.638Z,65.32
2019-02-28T09:25:14.026Z,71.65
2019-02-28T09:27:45.819Z,73.22
2019-02-28T09:30:29.680Z,65.67
2019-02-28T09:32:57.679Z,66.57
2019-02-28T09:35:28.324Z,64.22
2019-02-28T09:37:56.238Z,62.08
2019-02-28T09:40:25.667Z,64.17
2019-02-28T09:42:54.228Z,65.90
2019-02-28T09:45:27.158Z,67.05
2019-02-28T09:47:54.258Z,72.95
2019-02-28T09:50:22.596Z,63.63
2019-02-28T09:52:50.628Z,68.40
2019-02-28T09:55:19.165Z,71.53
2019-02-28T09:57:47.022Z,65.78
2019-02-28T10:00:20.070Z,67.32
2019-02-28T10:02:47.283Z,74.32
2019-02-28T10:05:14.518Z,65.70
2019-02-28T10:07:42.821Z,64.40
2019-02-28T10:10:20.813Z,70.85
2019-02-28T10:12:48.010Z,65.83
2019-02-28T10:15:16.643Z,60.03
2019-02-28T10:17:43.856Z,68.42
2019-02-28T10:20:16.858Z,57.80
2019-02-28T10:22:47.333Z,61.63
2019-02-28T10:25:16.346Z,55.00
2019-02-28T10:27:44.546Z,60.80
2019-02-28T10:30:17.325Z,48.50
2019-02-28T10:32:55.180Z,46.67
2019-02-28T10:35:23.165Z,44.63
2019-02-28T10:37:57.107Z,44.53
2019-02-28T10:40:22.504Z,44.58
2019-02-28T10:42:51.955Z,44.83
2019-02-28T10:45:19.846Z,45.38
2019-02-28T10:47:48.326Z,49.40
2019-02-28T10:50:18.610Z,46.60
2019-02-28T10:52:46.898Z,40.17
2019-02-28T10:55:19.500Z,42.27
2019-02-28T10:57:47.781Z,49.67
2019-02-28T11:00:22.217Z,38.43
2019-02-28T11:02:53.559Z,45.37
2019-02-28T11:05:24.820Z,45.00
2019-02-28T11:07:53.693Z,45.90
2019-02-28T11:10:21.602Z,38.30
2019-02-28T11:12:50.757Z,43.90
2019-02-28T11:15:23.705Z,43.13
2019-02-28T11:17:52.457Z,39.70
2019-02-28T11:20:22.298Z,42.93
2019-02-28T11:22:51.663Z,45.10
2019-02-28T11:25:34.656Z,44.47
2019-02-28T11:28:00.093Z,46.50
2019-02-28T11:30:27.866Z,42.53
2019-02-28T11:32:55.107Z,43.20
2019-02-28T11:35:23.167Z,41.67
2019-02-28T11:37:58.433Z,36.57
2019-02-28T11:40:28.842Z,40.13
2019-02-28T11:42:59.465Z,42.27
2019-02-28T11:45:27.495Z,44.33
2019-02-28T11:48:01.238Z,42.07
2019-02-28T11:50:29.033Z,41.73
2019-02-28T11:53:03.115Z,43.93
2019-02-28T11:55:28.572Z,41.07
2019-02-28T11:57:57.318Z,38.87
2019-02-28T12:00:32.510Z,41.87
2019-02-28T12:03:00.702Z,46.00
2019-02-28T12:05:28.910Z,40.03
2019-02-28T12:07:56.774Z,41.70
2019-02-28T12:10:31.090Z,42.10
2019-02-28T12:12:58.314Z,43.77
2019-02-28T12:15:26.858Z,39.53
2019-02-28T12:17:55.614Z,39.10
2019-02-28T12:20:26.576Z,36.67
2019-02-28T12:22:55.702Z,42.13
2019-02-28T12:25:23.909Z,43.47
2019-02-28T12:27:52.651Z,39.60
2019-02-28T12:30:25.223Z,43.90
2019-02-28T12:32:59.098Z,41.43
2019-02-28T12:35:27.379Z,39.07
2019-02-28T12:37:55.550Z,40.83
2019-02-28T12:40:26.299Z,45.33
2019-02-28T12:42:55.139Z,42.23
2019-02-28T12:45:27.242Z,37.93
2019-02-28T12:47:54.778Z,43.67
2019-02-28T12:50:22.487Z,42.00
2019-02-28T12:52:51.870Z,39.20
2019-02-28T12:55:19.399Z,49.03
2019-02-28T12:57:48.732Z,42.33
2019-02-28T13:00:23.408Z,46.13
2019-02-28T13:02:51.932Z,40.60
2019-02-28T13:05:20.010Z,43.67
2019-02-28T13:07:53.938Z,47.20
2019-02-28T13:10:26.770Z,45.50
2019-02-28T13:12:51.062Z,48.60
2019-02-28T13:15:18.358Z,45.43
2019-02-28T13:17:45.558Z,48.80
2019-02-28T13:20:17.156Z,47.00
2019-02-28T13:22:45.827Z,50.90
2019-02-28T13:25:14.049Z,52.13
2019-02-28T13:27:45.240Z,52.37
2019-02-28T13:30:20.107Z,52.53
2019-02-28T13:32:49.380Z,61.93
2019-02-28T13:35:22.746Z,64.43
2019-02-28T13:37:50.546Z,64.53
2019-02-28T13:40:22.060Z,56.23
2019-02-28T13:42:49.442Z,72.33
2019-02-28T13:45:23.155Z,62.10
2019-02-28T13:47:47.812Z,70.40
2019-02-28T13:50:21.843Z,61.20
2019-02-28T13:52:53.499Z,70.20
2019-02-28T13:55:21.170Z,70.97
2019-02-28T13:57:49.338Z,67.30
2019-02-28T14:00:23.082Z,68.17
2019-02-28T14:03:02.007Z,65.03
2019-02-28T14:05:29.510Z,67.07
2019-02-28T14:07:56.990Z,62.70
2019-02-28T14:10:24.530Z,62.37
2019-02-28T14:12:58.875Z,59.53
2019-02-28T14:15:32.498Z,57.67
2019-02-28T14:18:00.142Z,56.80
2019-02-28T14:20:27.727Z,53.80
2019-02-28T14:23:00.167Z,52.63
2019-02-28T14:25:27.445Z,46.40
2019-02-28T14:27:56.909Z,46.93
2019-02-28T14:30:24.351Z,53.37
2019-02-28T14:32:51.618Z,45.87
2019-02-28T14:35:24.401Z,47.40
2019-02-28T14:37:55.861Z,48.10
2019-02-28T14:40:21.099Z,62.50
2019-02-28T14:42:49.938Z,61.00
2019-02-28T14:45:18.753Z,60.30
2019-02-28T14:48:00.857Z,62.10
2019-02-28T14:50:28.306Z,63.37
2019-02-28T14:52:55.852Z,74.90
2019-02-28T14:55:23.167Z,68.97
2019-02-28T14:57:55.336Z,67.83
2019-02-28T15:00:26.866Z,68.07
2019-02-28T15:02:54.187Z,68.10
2019-02-28T15:05:22.160Z,73.60
2019-02-28T15:07:49.395Z,66.33
2019-02-28T15:10:19.279Z,74.80
2019-02-28T15:12:47.491Z,80.73
2019-02-28T15:15:18.034Z,73.53
2019-02-28T15:17:46.986Z,74.13
2019-02-28T15:20:20.753Z,78.62
2019-02-28T15:22:47.947Z,63.17
2019-02-28T15:25:18.544Z,68.80
2019-02-28T15:27:45.460Z,61.80
2019-02-28T15:30:22.681Z,57.60
2019-02-28T15:32:50.772Z,61.13
2019-02-28T15:35:19.707Z,57.73
2019-02-28T15:37:47.018Z,56.93
2019-02-28T15:40:27.419Z,53.30
2019-02-28T15:42:55.422Z,60.13
2019-02-28T15:45:23.787Z,66.60
2019-02-28T15:47:55.409Z,57.80
2019-02-28T15:50:34.783Z,58.70
2019-02-28T15:53:04.936Z,61.28
2019-02-28T15:55:35.489Z,62.40
2019-02-28T15:58:06.000Z,53.13
2019-02-28T16:00:34.443Z,56.55
2019-02-28T16:03:24.418Z,50.77
2019-02-28T16:05:51.989Z,45.90
2019-02-28T16:08:20.236Z,47.67
2019-02-28T16:10:53.208Z,48.28
2019-02-28T16:13:19.389Z,50.27
2019-02-28T16:15:49.947Z,44.88
2019-02-28T16:18:16.448Z,50.45
2019-02-28T16:20:44.334Z,43.70
2019-02-28T16:23:11.665Z,42.27
2019-02-28T16:25:39.219Z,43.00
2019-02-28T16:28:07.726Z,44.83
2019-02-28T16:30:38.295Z,41.67
2019-02-28T16:33:05.999Z,42.37
2019-02-28T16:35:33.210Z,46.28
2019-02-28T16:38:00.923Z,38.17
2019-02-28T16:40:28.690Z,38.15
2019-02-28T16:42:56.747Z,38.93
2019-02-28T16:45:33.733Z,43.50
2019-02-28T16:48:07.211Z,38.58
2019-02-28T16:50:36.418Z,34.78
2019-02-28T16:53:04.432Z,39.80
2019-02-28T16:55:32.080Z,37.90
2019-02-28T16:58:00.235Z,37.87
2019-02-28T17:00:27.773Z,39.05
2019-02-28T17:02:56.464Z,40.80
2019-02-28T17:05:28.055Z,34.20
2019-02-28T17:07:53.760Z,34.03
2019-02-28T17:10:26.225Z,30.30
2019-02-28T17:13:13.037Z,29.70
2019-02-28T17:15:55.888Z,35.83
2019-02-28T17:18:22.586Z,38.58
2019-02-28T17:20:50.503Z,34.48
2019-02-28T17:23:19.003Z,31.20
2019-02-28T17:25:46.927Z,30.43
2019-02-28T17:28:36.753Z,24.05
2019-02-28T17:31:24.339Z,31.93
2019-02-28T17:33:52.189Z,29.80
2019-02-28T17:36:24.811Z,30.65
2019-02-28T17:38:53.985Z,29.25
2019-02-28T17:41:22.142Z,25.48
2019-02-28T17:44:30.118Z,23.32
2019-02-28T17:47:01.540Z,25.52
2019-02-28T17:50:08.929Z,26.15
2019-02-28T17:52:53.210Z,17.85
2019-02-28T17:55:59.201Z,17.10
2019-02-28T17:59:08.435Z,16.93
2019-02-28T18:02:17.170Z,14.27
2019-02-28T18:05:42.353Z,19.95
2019-02-28T18:08:38.542Z,17.80
2019-02-28T18:11:42.654Z,15.15
2019-02-28T18:14:51.368Z,17.75
2019-02-28T18:17:56.178Z,16.65
2019-02-28T18:21:07.142Z,16.90
2019-02-28T18:24:20.264Z,15.15
2019-02-28T18:27:28.062Z,18.55
2019-02-28T18:30:27.584Z,14.50
2019-02-28T18:32:56.250Z,15.68
2019-02-28T18:35:24.632Z,17.30
2019-02-28T18:37:53.837Z,23.65
2019-02-28T18:40:22.658Z,21.48
2019-02-28T18:42:53.624Z,18.05
2019-02-28T18:45:22.578Z,21.37
2019-02-28T18:47:51.891Z,15.55
2019-02-28T18:50:20.654Z,14.98
2019-02-28T18:52:49.211Z,20.40
2019-02-28T18:55:18.003Z,18.62
2019-02-28T18:57:46.424Z,21.97
2019-02-28T19:00:19.323Z,12.25
2019-02-28T19:02:48.047Z,14.85
2019-02-28T19:05:16.996Z,21.07
2019-02-28T19:07:46.657Z,17.60
2019-02-28T19:10:15.559Z,16.87
2019-02-28T19:12:44.886Z,13.10
2019-02-28T19:15:13.573Z,18.67
2019-02-28T19:17:41.278Z,20.90
2019-02-28T19:20:10.472Z,14.40
2019-02-28T19:22:39.122Z,15.00
2019-02-28T19:25:08.018Z,12.45
2019-02-28T19:27:37.223Z,11.78
2019-02-28T19:30:07.823Z,13.45
2019-02-28T19:32:36.523Z,16.65
2019-02-28T19:35:05.246Z,18.80
2019-02-28T19:37:33.538Z,9.80
2019-02-28T19:40:03.979Z,16.30
2019-02-28T19:42:31.579Z,16.05
2019-02-28T19:44:59.296Z,13.43
2019-02-28T19:47:27.927Z,11.83
2019-02-28T19:49:56.475Z,15.60
2019-02-28T19:52:25.741Z,16.52
2019-02-28T19:54:53.503Z,12.53
2019-02-28T19:57:20.826Z,15.15
2019-02-28T19:59:49.307Z,14.87
2019-02-28T20:02:18.120Z,14.23
2019-02-28T20:04:46.467Z,16.17
2019-02-28T20:07:14.949Z,14.93
2019-02-28T20:09:43.250Z,17.23
2019-02-28T20:12:15.243Z,16.37
2019-02-28T20:14:45.369Z,15.00
2019-02-28T20:17:15.522Z,11.15
2019-02-28T20:19:42.731Z,12.82
2019-02-28T20:22:10.001Z,11.08
2019-02-28T20:24:37.369Z,10.82
2019-02-28T20:27:04.783Z,11.88
2019-02-28T20:29:31.911Z,11.97
2019-02-28T20:31:59.291Z,9.75
2019-02-28T20:34:29.159Z,14.33
2019-02-28T20:36:58.142Z,14.35
2019-02-28T20:39:26.852Z,12.15
2019-02-28T20:41:56.589Z,11.90
2019-02-28T20:44:25.183Z,19.75
2019-02-28T20:46:53.623Z,14.25
2019-02-28T20:49:22.374Z,13.05
2019-02-28T20:51:55.085Z,13.58
2019-02-28T20:54:20.370Z,11.90
2019-02-28T20:56:48.533Z,16.55
2019-02-28T20:59:16.886Z,16.37
2019-02-28T21:01:45.184Z,13.28
2019-02-28T21:04:12.426Z,15.95
2019-02-28T21:06:40.630Z,14.80
2019-02-28T21:09:09.743Z,16.32
2019-02-28T21:11:38.031Z,17.45
2019-02-28T21:14:06.462Z,19.42
2019-02-28T21:16:34.661Z,17.25
2019-02-28T21:19:02.858Z,18.07
2019-02-28T21:21:31.142Z,15.78
2019-02-28T21:23:59.447Z,15.98
2019-02-28T21:26:27.740Z,18.70
2019-02-28T21:28:56.201Z,17.80
2019-02-28T21:31:24.486Z,18.65
2019-02-28T21:33:52.811Z,17.30
2019-02-28T21:36:21.390Z,16.80
2019-02-28T21:38:49.000Z,14.80
2019-02-28T21:41:17.579Z,19.52
2019-02-28T21:43:46.193Z,22.35
2019-02-28T21:46:14.639Z,16.12
2019-02-28T21:48:42.897Z,15.08
2019-02-28T21:51:11.755Z,16.55
2019-02-28T21:53:39.244Z,17.75
2019-02-28T21:56:07.622Z,16.37
2019-02-28T21:58:36.116Z,15.08
2019-02-28T22:01:04.586Z,15.40
2019-02-28T22:03:33.059Z,13.85
2019-02-28T22:06:01.631Z,13.98
2019-02-28T22:08:30.641Z,11.90
2019-02-28T22:10:58.760Z,9.85
2019-02-28T22:13:27.324Z,13.68
2019-02-28T22:15:56.198Z,11.70
2019-02-28T22:18:23.689Z,12.45
2019-02-28T22:20:52.530Z,14.05
2019-02-28T22:23:21.083Z,12.93
2019-02-28T22:25:48.334Z,11.75
2019-02-28T22:28:16.530Z,13.08
2019-02-28T22:31:04.488Z,14.20
2019-02-28T22:33:43.122Z,16.55
2019-02-28T22:36:13.869Z,13.95
2019-02-28T22:38:42.163Z,14.70
2019-02-28T22:41:10.446Z,15.90
2019-02-28T22:43:38.853Z,15.45
2019-02-28T22:46:07.133Z,15.15
2019-02-28T22:48:35.315Z,16.25
2019-02-28T22:51:03.667Z,17.40
2019-02-28T22:53:30.738Z,17.32
2019-02-28T22:55:58.963Z,16.23
2019-02-28T22:58:27.190Z,15.58
2019-02-28T23:01:03.162Z,14.53
2019-02-28T23:03:32.211Z,21.65
2019-02-28T23:06:00.770Z,21.57
2019-02-28T23:08:28.942Z,20.82
2019-02-28T23:10:57.148Z,17.67
2019-02-28T23:13:25.482Z,21.70
2019-02-28T23:15:53.738Z,24.98
2019-02-28T23:18:21.871Z,21.12
2019-02-28T23:20:50.142Z,21.25
2019-02-28T23:23:18.264Z,18.00
2019-02-28T23:25:46.594Z,24.47
2019-02-28T23:28:25.114Z,24.55
2019-02-28T23:31:13.718Z,21.48
2019-02-28T23:33:42.590Z,23.22
2019-02-28T23:36:11.296Z,21.10
2019-02-28T23:38:39.847Z,23.27
2019-02-28T23:41:08.266Z,22.07
2019-02-28T23:43:36.454Z,23.50
2019-02-28T23:46:04.867Z,23.00
2019-02-28T23:48:33.094Z,24.15
2019-02-28T23:51:01.680Z,23.52
2019-02-28T23:53:30.283Z,25.95
2019-02-28T23:55:57.810Z,23.02
2019-02-28T23:58:26.003Z,22.27
